sensor_id;sensor_type;location;lat;lon;timestamp;pressure;altitude;pressure_sealevel;temperature;humidity
54994;BME280;40891;47.242;8.648;2023-07-02T00:01:54;95912.63;;;19.29;91.77
54994;BME280;40891;47.242;8.648;2023-07-02T00:04:20;95910.81;;;19.31;92.02
54994;BME280;40891;47.242;8.648;2023-07-02T00:06:46;95916.44;;;19.42;90.85
54994;BME280;40891;47.242;8.648;2023-07-02T00:09:12;95916.22;;;19.29;91.68
54994;BME280;40891;47.242;8.648;2023-07-02T00:11:39;95918.53;;;19.31;91.80
54994;BME280;40891;47.242;8.648;2023-07-02T00:14:08;95921.88;;;19.29;91.49
54994;BME280;40891;47.242;8.648;2023-07-02T00:16:39;95926.00;;;19.23;91.68
54994;BME280;40891;47.242;8.648;2023-07-02T00:19:05;95919.38;;;19.20;92.15
54994;BME280;40891;47.242;8.648;2023-07-02T00:21:31;95911.44;;;19.19;92.25
54994;BME280;40891;47.242;8.648;2023-07-02T00:23:58;95912.72;;;19.18;93.24
54994;BME280;40891;47.242;8.648;2023-07-02T00:26:27;95905.75;;;19.24;93.62
54994;BME280;40891;47.242;8.648;2023-07-02T00:28:54;95893.97;;;19.26;93.33
54994;BME280;40891;47.242;8.648;2023-07-02T00:31:19;95898.34;;;19.21;94.38
54994;BME280;40891;47.242;8.648;2023-07-02T00:33:45;95901.91;;;19.22;94.40
54994;BME280;40891;47.242;8.648;2023-07-02T00:36:10;95897.06;;;19.17;93.76
54994;BME280;40891;47.242;8.648;2023-07-02T00:38:40;95892.97;;;19.23;93.95
54994;BME280;40891;47.242;8.648;2023-07-02T00:41:05;95900.19;;;19.13;94.20
54994;BME280;40891;47.242;8.648;2023-07-02T00:43:31;95897.91;;;19.12;94.34
54994;BME280;40891;47.242;8.648;2023-07-02T00:45:56;95896.59;;;19.13;95.04
54994;BME280;40891;47.242;8.648;2023-07-02T00:48:21;95900.41;;;19.21;95.13
54994;BME280;40891;47.242;8.648;2023-07-02T00:50:47;95904.50;;;19.20;94.06
54994;BME280;40891;47.242;8.648;2023-07-02T00:53:13;95906.81;;;19.21;95.15
54994;BME280;40891;47.242;8.648;2023-07-02T00:55:38;95910.88;;;19.26;94.87
54994;BME280;40891;47.242;8.648;2023-07-02T00:58:03;95915.53;;;19.18;94.02
54994;BME280;40891;47.242;8.648;2023-07-02T01:00:29;95911.69;;;19.21;95.23
54994;BME280;40891;47.242;8.648;2023-07-02T01:02:55;95906.81;;;19.21;96.59
54994;BME280;40891;47.242;8.648;2023-07-02T01:05:28;95906.03;;;19.21;96.93
54994;BME280;40891;47.242;8.648;2023-07-02T01:08:03;95913.25;;;19.16;97.85
54994;BME280;40891;47.242;8.648;2023-07-02T01:10:29;95912.47;;;19.16;98.45
54994;BME280;40891;47.242;8.648;2023-07-02T01:12:57;95903.78;;;19.14;99.38
54994;BME280;40891;47.242;8.648;2023-07-02T01:15:25;95911.47;;;19.08;99.56
54994;BME280;40891;47.242;8.648;2023-07-02T01:17:52;95914.06;;;19.00;100.00
54994;BME280;40891;47.242;8.648;2023-07-02T01:20:18;95910.53;;;18.99;100.00
54994;BME280;40891;47.242;8.648;2023-07-02T01:22:46;95910.53;;;18.99;100.00
54994;BME280;40891;47.242;8.648;2023-07-02T01:25:14;95908.44;;;19.00;100.00
54994;BME280;40891;47.242;8.648;2023-07-02T01:27:40;95915.41;;;18.93;100.00
54994;BME280;40891;47.242;8.648;2023-07-02T01:30:06;95914.63;;;18.93;100.00
54994;BME280;40891;47.242;8.648;2023-07-02T01:32:32;95931.56;;;18.87;100.00
54994;BME280;40891;47.242;8.648;2023-07-02T01:34:57;95937.78;;;18.69;100.00
54994;BME280;40891;47.242;8.648;2023-07-02T01:37:24;95941.91;;;18.63;100.00
54994;BME280;40891;47.242;8.648;2023-07-02T01:39:49;95948.06;;;18.45;100.00
54994;BME280;40891;47.242;8.648;2023-07-02T01:42:16;95948.63;;;18.26;100.00
54994;BME280;40891;47.242;8.648;2023-07-02T01:44:43;95958.88;;;18.13;100.00
54994;BME280;40891;47.242;8.648;2023-07-02T01:47:09;95955.81;;;18.11;100.00
54994;BME280;40891;47.242;8.648;2023-07-02T01:49:35;95952.75;;;18.09;100.00
54994;BME280;40891;47.242;8.648;2023-07-02T01:52:01;95952.47;;;18.01;100.00
54994;BME280;40891;47.242;8.648;2023-07-02T01:54:27;95958.38;;;17.87;100.00
54994;BME280;40891;47.242;8.648;2023-07-02T01:56:54;95953.00;;;17.78;100.00
54994;BME280;40891;47.242;8.648;2023-07-02T01:59:19;95951.72;;;17.73;100.00
54994;BME280;40891;47.242;8.648;2023-07-02T02:01:45;95956.56;;;17.73;100.00
54994;BME280;40891;47.242;8.648;2023-07-02T02:04:11;95962.47;;;17.69;100.00
54994;BME280;40891;47.242;8.648;2023-07-02T02:06:37;95963.50;;;17.72;100.00
54994;BME280;40891;47.242;8.648;2023-07-02T02:09:03;95969.59;;;17.70;100.00
54994;BME280;40891;47.242;8.648;2023-07-02T02:11:30;95963.47;;;17.60;100.00
54994;BME280;40891;47.242;8.648;2023-07-02T02:13:59;95981.88;;;17.61;100.00
54994;BME280;40891;47.242;8.648;2023-07-02T02:16:28;95987.75;;;17.52;100.00
54994;BME280;40891;47.242;8.648;2023-07-02T02:18:53;95985.91;;;17.49;100.00
54994;BME280;40891;47.242;8.648;2023-07-02T02:21:20;95984.41;;;17.48;100.00
54994;BME280;40891;47.242;8.648;2023-07-02T02:23:45;95984.19;;;17.57;100.00
54994;BME280;40891;47.242;8.648;2023-07-02T02:26:11;95990.97;;;17.29;100.00
54994;BME280;40891;47.242;8.648;2023-07-02T02:28:36;95993.53;;;17.32;100.00
54994;BME280;40891;47.242;8.648;2023-07-02T02:31:02;95990.22;;;17.28;100.00
54994;BME280;40891;47.242;8.648;2023-07-02T02:33:27;95994.25;;;17.11;100.00
54994;BME280;40891;47.242;8.648;2023-07-02T02:35:53;95997.25;;;17.01;100.00
54994;BME280;40891;47.242;8.648;2023-07-02T02:38:18;96000.25;;;16.81;100.00
54994;BME280;40891;47.242;8.648;2023-07-02T02:40:43;96002.03;;;16.79;100.00
54994;BME280;40891;47.242;8.648;2023-07-02T02:43:09;95996.41;;;16.79;100.00
54994;BME280;40891;47.242;8.648;2023-07-02T02:45:34;95998.16;;;16.71;100.00
54994;BME280;40891;47.242;8.648;2023-07-02T02:48:00;96001.72;;;16.71;100.00
54994;BME280;40891;47.242;8.648;2023-07-02T02:50:25;95994.81;;;16.67;100.00
54994;BME280;40891;47.242;8.648;2023-07-02T02:52:50;95995.59;;;16.67;100.00
54994;BME280;40891;47.242;8.648;2023-07-02T02:55:16;96002.25;;;16.70;100.00
54994;BME280;40891;47.242;8.648;2023-07-02T02:57:41;95994.75;;;16.56;100.00
54994;BME280;40891;47.242;8.648;2023-07-02T03:00:08;96002.72;;;16.63;100.00
54994;BME280;40891;47.242;8.648;2023-07-02T03:02:34;95999.44;;;16.70;100.00
54994;BME280;40891;47.242;8.648;2023-07-02T03:05:01;96009.59;;;16.62;100.00
54994;BME280;40891;47.242;8.648;2023-07-02T03:07:28;95998.34;;;16.62;100.00
54994;BME280;40891;47.242;8.648;2023-07-02T03:09:54;95996.31;;;16.62;100.00
54994;BME280;40891;47.242;8.648;2023-07-02T03:12:19;95999.13;;;16.62;100.00
54994;BME280;40891;47.242;8.648;2023-07-02T03:14:45;96005.25;;;16.61;100.00
54994;BME280;40891;47.242;8.648;2023-07-02T03:17:13;96005.84;;;16.76;100.00
54994;BME280;40891;47.242;8.648;2023-07-02T03:19:38;95995.59;;;16.73;100.00
54994;BME280;40891;47.242;8.648;2023-07-02T03:22:03;96007.38;;;16.82;100.00
54994;BME280;40891;47.242;8.648;2023-07-02T03:24:29;96001.59;;;16.97;100.00
54994;BME280;40891;47.242;8.648;2023-07-02T03:26:54;95999.78;;;16.88;100.00
54994;BME280;40891;47.242;8.648;2023-07-02T03:29:19;96004.38;;;16.91;100.00
54994;BME280;40891;47.242;8.648;2023-07-02T03:31:45;96003.34;;;16.94;100.00
54994;BME280;40891;47.242;8.648;2023-07-02T03:34:11;96008.78;;;17.09;100.00
54994;BME280;40891;47.242;8.648;2023-07-02T03:36:37;96013.88;;;17.05;100.00
54994;BME280;40891;47.242;8.648;2023-07-02T03:39:03;96010.34;;;17.10;100.00
54994;BME280;40891;47.242;8.648;2023-07-02T03:41:29;96014.63;;;17.00;100.00
54994;BME280;40891;47.242;8.648;2023-07-02T03:43:54;96019.03;;;17.12;100.00
54994;BME280;40891;47.242;8.648;2023-07-02T03:46:20;96034.28;;;17.00;100.00
54994;BME280;40891;47.242;8.648;2023-07-02T03:48:45;96023.09;;;17.11;100.00
54994;BME280;40891;47.242;8.648;2023-07-02T03:51:10;96036.31;;;16.94;100.00
54994;BME280;40891;47.242;8.648;2023-07-02T03:53:39;96032.75;;;16.99;100.00
54994;BME280;40891;47.242;8.648;2023-07-02T03:56:04;96041.25;;;17.10;100.00
54994;BME280;40891;47.242;8.648;2023-07-02T03:58:30;96043.25;;;17.04;100.00
54994;BME280;40891;47.242;8.648;2023-07-02T04:00:55;96051.09;;;16.89;100.00
54994;BME280;40891;47.242;8.648;2023-07-02T04:03:20;96051.88;;;16.95;100.00
54994;BME280;40891;47.242;8.648;2023-07-02T04:05:45;96055.25;;;17.05;100.00
54994;BME280;40891;47.242;8.648;2023-07-02T04:08:11;96064.59;;;16.85;100.00
54994;BME280;40891;47.242;8.648;2023-07-02T04:10:36;96059.00;;;16.90;100.00
54994;BME280;40891;47.242;8.648;2023-07-02T04:13:02;96060.78;;;16.88;100.00
54994;BME280;40891;47.242;8.648;2023-07-02T04:15:27;96063.38;;;16.97;100.00
54994;BME280;40891;47.242;8.648;2023-07-02T04:17:52;96062.16;;;17.04;100.00
54994;BME280;40891;47.242;8.648;2023-07-02T04:20:19;96066.94;;;16.92;100.00
54994;BME280;40891;47.242;8.648;2023-07-02T04:22:45;96060.53;;;16.86;100.00
54994;BME280;40891;47.242;8.648;2023-07-02T04:25:14;96063.13;;;16.95;100.00
54994;BME280;40891;47.242;8.648;2023-07-02T04:27:45;96059.00;;;16.90;100.00
54994;BME280;40891;47.242;8.648;2023-07-02T04:30:11;96065.09;;;16.83;100.00
54994;BME280;40891;47.242;8.648;2023-07-02T04:32:38;96059.78;;;16.91;100.00
54994;BME280;40891;47.242;8.648;2023-07-02T04:35:09;96062.84;;;16.93;100.00
54994;BME280;40891;47.242;8.648;2023-07-02T04:37:36;96065.16;;;16.94;100.00
54994;BME280;40891;47.242;8.648;2023-07-02T04:40:02;96070.50;;;16.92;100.00
54994;BME280;40891;47.242;8.648;2023-07-02T04:42:29;96070.28;;;16.96;100.00
54994;BME280;40891;47.242;8.648;2023-07-02T04:44:57;96067.25;;;17.05;100.00
54994;BME280;40891;47.242;8.648;2023-07-02T04:47:27;96071.09;;;17.08;100.00
54994;BME280;40891;47.242;8.648;2023-07-02T04:49:52;96075.22;;;17.12;100.00
54994;BME280;40891;47.242;8.648;2023-07-02T04:52:17;96076.47;;;17.11;100.00
54994;BME280;40891;47.242;8.648;2023-07-02T04:54:43;96077.69;;;16.99;100.00
54994;BME280;40891;47.242;8.648;2023-07-02T04:57:08;96071.03;;;16.96;100.00
54994;BME280;40891;47.242;8.648;2023-07-02T04:59:33;96080.22;;;16.97;100.00
54994;BME280;40891;47.242;8.648;2023-07-02T05:01:58;96074.13;;;17.04;100.00
54994;BME280;40891;47.242;8.648;2023-07-02T05:04:24;96079.28;;;17.06;100.00
54994;BME280;40891;47.242;8.648;2023-07-02T05:06:49;96082.91;;;17.17;100.00
54994;BME280;40891;47.242;8.648;2023-07-02T05:09:14;96073.66;;;17.11;100.00
54994;BME280;40891;47.242;8.648;2023-07-02T05:11:40;96065.25;;;17.11;100.00
54994;BME280;40891;47.242;8.648;2023-07-02T05:14:05;96069.16;;;17.30;100.00
54994;BME280;40891;47.242;8.648;2023-07-02T05:16:30;96064.31;;;17.31;100.00
54994;BME280;40891;47.242;8.648;2023-07-02T05:18:56;96069.72;;;17.45;100.00
54994;BME280;40891;47.242;8.648;2023-07-02T05:21:22;96070.31;;;17.60;100.00
54994;BME280;40891;47.242;8.648;2023-07-02T05:23:47;96064.44;;;17.64;100.00
54994;BME280;40891;47.242;8.648;2023-07-02T05:26:13;96066.03;;;17.82;100.00
54994;BME280;40891;47.242;8.648;2023-07-02T05:28:39;96072.16;;;17.86;100.00
54994;BME280;40891;47.242;8.648;2023-07-02T05:31:04;96083.41;;;17.91;100.00
54994;BME280;40891;47.242;8.648;2023-07-02T05:33:29;96084.97;;;17.92;100.00
54994;BME280;40891;47.242;8.648;2023-07-02T05:35:57;96090.31;;;17.85;100.00
54994;BME280;40891;47.242;8.648;2023-07-02T05:38:22;96083.19;;;17.95;100.00
54994;BME280;40891;47.242;8.648;2023-07-02T05:40:48;96088.28;;;17.91;100.00
54994;BME280;40891;47.242;8.648;2023-07-02T05:43:13;96094.91;;;17.82;100.00
54994;BME280;40891;47.242;8.648;2023-07-02T05:45:38;96083.91;;;17.84;100.00
54994;BME280;40891;47.242;8.648;2023-07-02T05:48:04;96084.44;;;17.94;100.00
54994;BME280;40891;47.242;8.648;2023-07-02T05:50:29;96097.75;;;17.88;100.00
54994;BME280;40891;47.242;8.648;2023-07-02T05:52:55;96098.25;;;17.81;100.00
54994;BME280;40891;47.242;8.648;2023-07-02T05:55:20;96089.50;;;17.62;100.00
54994;BME280;40891;47.242;8.648;2023-07-02T05:57:46;96089.28;;;17.82;100.00
54994;BME280;40891;47.242;8.648;2023-07-02T06:00:12;96090.34;;;17.90;100.00
54994;BME280;40891;47.242;8.648;2023-07-02T06:02:37;96096.47;;;17.89;100.00
54994;BME280;40891;47.242;8.648;2023-07-02T06:05:03;96099.53;;;17.85;100.00
54994;BME280;40891;47.242;8.648;2023-07-02T06:07:29;96097.25;;;17.95;100.00
54994;BME280;40891;47.242;8.648;2023-07-02T06:09:54;96095.44;;;17.81;100.00
54994;BME280;40891;47.242;8.648;2023-07-02T06:12:20;96097.97;;;17.79;100.00
54994;BME280;40891;47.242;8.648;2023-07-02T06:14:46;96098.28;;;18.03;100.00
54994;BME280;40891;47.242;8.648;2023-07-02T06:17:11;96106.19;;;17.88;100.00
54994;BME280;40891;47.242;8.648;2023-07-02T06:19:37;96109.22;;;17.79;100.00
54994;BME280;40891;47.242;8.648;2023-07-02T06:22:03;96105.69;;;17.95;100.00
54994;BME280;40891;47.242;8.648;2023-07-02T06:24:28;96110.06;;;18.12;100.00
54994;BME280;40891;47.242;8.648;2023-07-02T06:26:53;96109.25;;;18.01;100.00
54994;BME280;40891;47.242;8.648;2023-07-02T06:29:19;96106.97;;;18.10;100.00
54994;BME280;40891;47.242;8.648;2023-07-02T06:31:44;96111.88;;;18.10;100.00
54994;BME280;40891;47.242;8.648;2023-07-02T06:34:09;96115.19;;;18.25;100.00
54994;BME280;40891;47.242;8.648;2023-07-02T06:36:35;96119.78;;;18.22;100.00
54994;BME280;40891;47.242;8.648;2023-07-02T06:39:00;96121.59;;;18.36;100.00
54994;BME280;40891;47.242;8.648;2023-07-02T06:41:26;96120.59;;;18.45;100.00
54994;BME280;40891;47.242;8.648;2023-07-02T06:43:51;96121.38;;;18.73;100.00
54994;BME280;40891;47.242;8.648;2023-07-02T06:46:17;96125.72;;;18.80;100.00
54994;BME280;40891;47.242;8.648;2023-07-02T06:48:42;96124.19;;;18.73;100.00
54994;BME280;40891;47.242;8.648;2023-07-02T06:51:07;96129.31;;;18.69;100.00
54994;BME280;40891;47.242;8.648;2023-07-02T06:53:33;96128.81;;;18.65;100.00
54994;BME280;40891;47.242;8.648;2023-07-02T06:55:59;96124.19;;;18.73;100.00
54994;BME280;40891;47.242;8.648;2023-07-02T06:58:24;96134.16;;;18.74;100.00
54994;BME280;40891;47.242;8.648;2023-07-02T07:00:49;96129.06;;;18.56;100.00
54994;BME280;40891;47.242;8.648;2023-07-02T07:03:16;96133.66;;;18.65;100.00
54994;BME280;40891;47.242;8.648;2023-07-02T07:05:41;96133.69;;;18.59;100.00
54994;BME280;40891;47.242;8.648;2023-07-02T07:08:07;96128.28;;;18.72;100.00
54994;BME280;40891;47.242;8.648;2023-07-02T07:10:32;96136.50;;;18.70;100.00
54994;BME280;40891;47.242;8.648;2023-07-02T07:13:00;96124.94;;;18.79;100.00
54994;BME280;40891;47.242;8.648;2023-07-02T07:15:26;96124.19;;;18.84;100.00
54994;BME280;40891;47.242;8.648;2023-07-02T07:17:51;96125.72;;;18.96;100.00
54994;BME280;40891;47.242;8.648;2023-07-02T07:20:17;96123.13;;;18.98;99.98
54994;BME280;40891;47.242;8.648;2023-07-02T07:22:42;96134.13;;;19.13;98.30
54994;BME280;40891;47.242;8.648;2023-07-02T07:25:08;96131.50;;;19.48;99.00
54994;BME280;40891;47.242;8.648;2023-07-02T07:27:33;96136.13;;;19.40;97.45
54994;BME280;40891;47.242;8.648;2023-07-02T07:29:58;96133.06;;;19.44;98.05
54994;BME280;40891;47.242;8.648;2023-07-02T07:32:24;96131.25;;;19.52;98.50
54994;BME280;40891;47.242;8.648;2023-07-02T07:34:49;96133.31;;;19.35;96.78
54994;BME280;40891;47.242;8.648;2023-07-02T07:37:14;96136.13;;;19.46;98.79
54994;BME280;40891;47.242;8.648;2023-07-02T07:39:40;96137.84;;;19.65;98.15
54994;BME280;40891;47.242;8.648;2023-07-02T07:42:05;96128.75;;;19.89;97.26
54994;BME280;40891;47.242;8.648;2023-07-02T07:44:31;96136.81;;;20.15;95.56
54994;BME280;40891;47.242;8.648;2023-07-02T07:46:56;96134.47;;;20.30;96.07
54994;BME280;40891;47.242;8.648;2023-07-02T07:49:22;96135.34;;;20.03;93.23
54994;BME280;40891;47.242;8.648;2023-07-02T07:51:47;96130.28;;;19.90;94.87
54994;BME280;40891;47.242;8.648;2023-07-02T07:54:13;96131.59;;;19.89;95.44
54994;BME280;40891;47.242;8.648;2023-07-02T07:56:38;96138.19;;;19.97;92.45
54994;BME280;40891;47.242;8.648;2023-07-02T07:59:03;96130.56;;;19.92;93.13
54994;BME280;40891;47.242;8.648;2023-07-02T08:01:29;96136.72;;;19.85;93.68
54994;BME280;40891;47.242;8.648;2023-07-02T08:03:54;96137.25;;;19.78;92.63
54994;BME280;40891;47.242;8.648;2023-07-02T08:06:19;96132.69;;;19.75;95.31
54994;BME280;40891;47.242;8.648;2023-07-02T08:08:45;96132.88;;;19.88;93.35
54994;BME280;40891;47.242;8.648;2023-07-02T08:11:10;96125.00;;;19.76;92.46
54994;BME280;40891;47.242;8.648;2023-07-02T08:13:35;96127.47;;;19.90;94.60
54994;BME280;40891;47.242;8.648;2023-07-02T08:18:26;96123.28;;;20.02;95.19
54994;BME280;40891;47.242;8.648;2023-07-02T08:20:51;96128.16;;;20.02;91.98
54994;BME280;40891;47.242;8.648;2023-07-02T08:23:17;96131.28;;;19.98;92.94
54994;BME280;40891;47.242;8.648;2023-07-02T08:25:42;96121.16;;;20.14;93.64
54994;BME280;40891;47.242;8.648;2023-07-02T08:28:07;96129.78;;;20.32;93.78
54994;BME280;40891;47.242;8.648;2023-07-02T08:30:33;96128.06;;;20.24;90.25
54994;BME280;40891;47.242;8.648;2023-07-02T08:32:58;96140.19;;;20.13;91.28
54994;BME280;40891;47.242;8.648;2023-07-02T08:35:23;96135.28;;;20.14;88.59
54994;BME280;40891;47.242;8.648;2023-07-02T08:37:49;96138.63;;;20.18;88.27
54994;BME280;40891;47.242;8.648;2023-07-02T08:40:18;96139.69;;;20.09;90.97
54994;BME280;40891;47.242;8.648;2023-07-02T08:42:47;96137.84;;;20.17;91.05
54994;BME280;40891;47.242;8.648;2023-07-02T08:45:14;96132.19;;;20.23;89.72
54994;BME280;40891;47.242;8.648;2023-07-02T08:47:40;96132.09;;;20.40;90.21
54994;BME280;40891;47.242;8.648;2023-07-02T08:50:06;96135.09;;;20.47;87.92
54994;BME280;40891;47.242;8.648;2023-07-02T08:52:31;96134.06;;;20.50;85.74
54994;BME280;40891;47.242;8.648;2023-07-02T08:54:57;96142.22;;;20.89;86.54
54994;BME280;40891;47.242;8.648;2023-07-02T08:57:22;96138.69;;;21.13;85.61
54994;BME280;40891;47.242;8.648;2023-07-02T08:59:48;96144.25;;;20.94;85.01
54994;BME280;40891;47.242;8.648;2023-07-02T09:02:14;96143.94;;;20.97;86.13
54994;BME280;40891;47.242;8.648;2023-07-02T09:04:39;96152.38;;;21.03;87.99
54994;BME280;40891;47.242;8.648;2023-07-02T09:07:08;96147.59;;;21.22;88.54
54994;BME280;40891;47.242;8.648;2023-07-02T09:09:50;96145.41;;;21.34;90.16
54994;BME280;40891;47.242;8.648;2023-07-02T09:12:41;96143.44;;;21.23;87.24
54994;BME280;40891;47.242;8.648;2023-07-02T09:15:07;96143.69;;;21.25;85.99
54994;BME280;40891;47.242;8.648;2023-07-02T09:17:35;96151.59;;;21.02;85.66
54994;BME280;40891;47.242;8.648;2023-07-02T09:20:03;96142.69;;;21.23;86.15
54994;BME280;40891;47.242;8.648;2023-07-02T09:22:31;96140.56;;;21.53;85.26
54994;BME280;40891;47.242;8.648;2023-07-02T09:24:57;96140.63;;;21.72;83.75
54994;BME280;40891;47.242;8.648;2023-07-02T09:27:37;96146.84;;;21.89;80.45
54994;BME280;40891;47.242;8.648;2023-07-02T09:30:11;96142.34;;;21.99;81.89
54994;BME280;40891;47.242;8.648;2023-07-02T09:32:42;96139.00;;;22.19;79.74
54994;BME280;40891;47.242;8.648;2023-07-02T09:35:09;96139.00;;;22.19;77.09
54994;BME280;40891;47.242;8.648;2023-07-02T09:37:35;96146.09;;;22.44;77.31
54994;BME280;40891;47.242;8.648;2023-07-02T09:40:01;96137.44;;;22.87;78.15
54994;BME280;40891;47.242;8.648;2023-07-02T09:42:28;96129.34;;;22.78;74.77
54994;BME280;40891;47.242;8.648;2023-07-02T09:44:55;96135.34;;;23.19;74.33
54994;BME280;40891;47.242;8.648;2023-07-02T09:47:21;96126.44;;;23.67;74.17
54994;BME280;40891;47.242;8.648;2023-07-02T09:49:55;96126.53;;;24.01;73.92
54994;BME280;40891;47.242;8.648;2023-07-02T09:52:21;96129.59;;;23.90;70.82
54994;BME280;40891;47.242;8.648;2023-07-02T09:54:49;96122.06;;;23.93;70.42
54994;BME280;40891;47.242;8.648;2023-07-02T09:57:15;96121.09;;;23.77;69.10
54994;BME280;40891;47.242;8.648;2023-07-02T09:59:41;96130.06;;;23.68;70.82
54994;BME280;40891;47.242;8.648;2023-07-02T10:02:09;96140.25;;;23.19;71.19
54994;BME280;40891;47.242;8.648;2023-07-02T10:04:45;96141.34;;;23.29;73.05
54994;BME280;40891;47.242;8.648;2023-07-02T10:07:11;96139.28;;;23.16;73.85
54994;BME280;40891;47.242;8.648;2023-07-02T10:09:39;96134.69;;;23.13;73.80
54994;BME280;40891;47.242;8.648;2023-07-02T10:12:21;96145.81;;;23.11;73.75
54994;BME280;40891;47.242;8.648;2023-07-02T10:14:51;96147.25;;;22.86;72.56
54994;BME280;40891;47.242;8.648;2023-07-02T10:19:53;96146.09;;;23.39;73.14
54994;BME280;40891;47.242;8.648;2023-07-02T10:22:19;96142.91;;;23.30;70.75
54994;BME280;40891;47.242;8.648;2023-07-02T10:24:58;96144.41;;;22.54;71.57
54994;BME280;40891;47.242;8.648;2023-07-02T10:30:00;96151.47;;;22.48;74.08
54994;BME280;40891;47.242;8.648;2023-07-02T10:32:29;96148.25;;;22.38;73.85
54994;BME280;40891;47.242;8.648;2023-07-02T10:34:54;96153.22;;;22.32;73.99
54994;BME280;40891;47.242;8.648;2023-07-02T10:37:20;96142.97;;;22.48;75.08
54994;BME280;40891;47.242;8.648;2023-07-02T10:39:46;96141.84;;;22.69;74.30
54994;BME280;40891;47.242;8.648;2023-07-02T10:42:11;96148.13;;;22.81;70.60
54994;BME280;40891;47.242;8.648;2023-07-02T10:44:52;96138.72;;;23.05;72.60
54994;BME280;40891;47.242;8.648;2023-07-02T10:47:19;96135.53;;;23.66;70.34
54994;BME280;40891;47.242;8.648;2023-07-02T10:49:45;96142.94;;;22.98;67.77
54994;BME280;40891;47.242;8.648;2023-07-02T10:52:10;96144.97;;;23.29;67.80
54994;BME280;40891;47.242;8.648;2023-07-02T10:54:43;96144.47;;;23.57;67.04
54994;BME280;40891;47.242;8.648;2023-07-02T10:57:10;96132.09;;;24.07;66.03
54994;BME280;40891;47.242;8.648;2023-07-02T10:59:37;96127.53;;;24.38;64.79
54994;BME280;40891;47.242;8.648;2023-07-02T11:02:03;96138.13;;;24.71;65.02
54994;BME280;40891;47.242;8.648;2023-07-02T11:04:32;96134.16;;;24.87;61.17
54994;BME280;40891;47.242;8.648;2023-07-02T11:06:58;96129.91;;;25.01;62.82
54994;BME280;40891;47.242;8.648;2023-07-02T11:09:24;96123.16;;;25.53;61.89
54994;BME280;40891;47.242;8.648;2023-07-02T11:11:51;96121.06;;;25.53;62.96
54994;BME280;40891;47.242;8.648;2023-07-02T11:14:30;96122.06;;;25.35;64.46
54994;BME280;40891;47.242;8.648;2023-07-02T11:16:56;96117.59;;;25.76;62.94
54994;BME280;40891;47.242;8.648;2023-07-02T11:19:22;96113.78;;;25.73;62.94
54994;BME280;40891;47.242;8.648;2023-07-02T11:21:53;96119.56;;;25.52;60.83
54994;BME280;40891;47.242;8.648;2023-07-02T11:24:33;96116.84;;;25.47;60.92
54994;BME280;40891;47.242;8.648;2023-07-02T11:27:00;96117.47;;;25.32;63.00
54994;BME280;40891;47.242;8.648;2023-07-02T11:29:27;96115.91;;;25.24;63.51
54994;BME280;40891;47.242;8.648;2023-07-02T11:31:53;96116.13;;;25.05;64.69
54994;BME280;40891;47.242;8.648;2023-07-02T11:34:21;96114.84;;;25.14;65.17
54994;BME280;40891;47.242;8.648;2023-07-02T11:36:47;96113.03;;;25.44;63.49
54994;BME280;40891;47.242;8.648;2023-07-02T11:39:13;96100.75;;;27.32;58.63
54994;BME280;40891;47.242;8.648;2023-07-02T11:41:45;96096.97;;;28.15;54.70
54994;BME280;40891;47.242;8.648;2023-07-02T11:44:10;96094.66;;;29.42;51.69
54994;BME280;40891;47.242;8.648;2023-07-02T11:46:36;96087.13;;;30.23;49.98
54994;BME280;40891;47.242;8.648;2023-07-02T11:49:02;96081.22;;;30.21;47.33
54994;BME280;40891;47.242;8.648;2023-07-02T11:51:30;96077.94;;;30.68;46.18
54994;BME280;40891;47.242;8.648;2023-07-02T11:53:56;96084.28;;;30.06;46.73
54994;BME280;40891;47.242;8.648;2023-07-02T11:56:21;96080.66;;;29.46;47.74
54994;BME280;40891;47.242;8.648;2023-07-02T11:58:47;96093.34;;;28.54;50.43
54994;BME280;40891;47.242;8.648;2023-07-02T12:01:12;96098.06;;;27.57;52.22
54994;BME280;40891;47.242;8.648;2023-07-02T12:03:37;96096.56;;;26.80;55.12
54994;BME280;40891;47.242;8.648;2023-07-02T12:06:03;96092.47;;;26.02;58.90
54994;BME280;40891;47.242;8.648;2023-07-02T12:08:28;96092.38;;;25.51;59.38
54994;BME280;40891;47.242;8.648;2023-07-02T12:10:54;96095.06;;;25.29;61.34
54994;BME280;40891;47.242;8.648;2023-07-02T12:13:19;96090.53;;;25.33;62.34
54994;BME280;40891;47.242;8.648;2023-07-02T12:15:47;96094.25;;;25.49;60.24
54994;BME280;40891;47.242;8.648;2023-07-02T12:18:12;96091.38;;;25.21;59.86
54994;BME280;40891;47.242;8.648;2023-07-02T12:20:39;96084.38;;;25.22;61.58
54994;BME280;40891;47.242;8.648;2023-07-02T12:23:05;96080.03;;;25.49;60.34
54994;BME280;40891;47.242;8.648;2023-07-02T12:25:31;96086.72;;;26.46;56.76
54994;BME280;40891;47.242;8.648;2023-07-02T12:27:56;96082.44;;;27.73;52.60
54994;BME280;40891;47.242;8.648;2023-07-02T12:30:21;96073.16;;;29.09;50.08
54994;BME280;40891;47.242;8.648;2023-07-02T12:32:47;96070.59;;;30.14;46.00
54994;BME280;40891;47.242;8.648;2023-07-02T12:35:12;96072.81;;;30.76;42.70
54994;BME280;40891;47.242;8.648;2023-07-02T12:37:49;96065.97;;;32.19;43.30
54994;BME280;40891;47.242;8.648;2023-07-02T12:40:15;96070.66;;;32.34;39.46
54994;BME280;40891;47.242;8.648;2023-07-02T12:42:42;96066.25;;;31.20;43.63
54994;BME280;40891;47.242;8.648;2023-07-02T12:45:08;96054.38;;;30.26;44.79
54994;BME280;40891;47.242;8.648;2023-07-02T12:47:34;96061.63;;;30.27;44.22
54994;BME280;40891;47.242;8.648;2023-07-02T12:49:59;96062.44;;;29.93;44.79
54994;BME280;40891;47.242;8.648;2023-07-02T12:52:24;96056.66;;;30.27;45.93
54994;BME280;40891;47.242;8.648;2023-07-02T12:54:50;96058.50;;;30.50;43.84
54994;BME280;40891;47.242;8.648;2023-07-02T12:57:16;96052.78;;;31.87;42.43
54994;BME280;40891;47.242;8.648;2023-07-02T12:59:42;96047.56;;;33.22;41.01